Time;durP1;ratioP1;P1;durP2;ratioP2;P2;SDS_P1;SDS_P2;PMS_P1;PMS_P2;Temp;Humidity;BMP_temperature;BMP_pressure;BME280_temperature;BME280_humidity;BME280_pressure;Samples;Min_cycle;Max_cycle;Signal;HPM_P1;HPM_P2
2021/09/03 00:02:17;;;;;;;9.18;5.20;;;12.10;88.10;;;;;;4941272;29;20381;-79
2021/09/03 00:04:43;;;;;;;13.43;5.95;;;12.10;87.40;;;;;;4940137;29;20047;-79
2021/09/03 00:07:09;;;;;;;19.00;6.45;;;12.00;88.00;;;;;;4939999;28;20031;-79
2021/09/03 00:09:35;;;;;;;15.27;6.88;;;12.10;88.30;;;;;;4935778;29;20024;-79
2021/09/03 00:12:03;;;;;;;18.23;7.13;;;12.00;88.20;;;;;;4932954;29;20027;-79
2021/09/03 00:14:29;;;;;;;11.23;5.57;;;12.10;88.40;;;;;;4932771;29;20038;-79
2021/09/03 00:16:54;;;;;;;12.13;5.90;;;11.90;87.50;;;;;;4950837;28;20031;-79
2021/09/03 00:19:20;;;;;;;14.30;7.00;;;11.80;87.10;;;;;;4937536;29;20046;-79
2021/09/03 00:21:46;;;;;;;12.38;5.60;;;11.80;89.40;;;;;;4946999;28;20461;-79
2021/09/03 00:24:11;;;;;;;8.48;4.60;;;11.70;89.50;;;;;;4935100;28;20051;-78
2021/09/03 00:26:37;;;;;;;9.68;5.13;;;11.70;89.90;;;;;;4932619;29;20031;-78
2021/09/03 00:29:03;;;;;;;8.43;4.75;;;11.80;90.10;;;;;;4935053;29;20118;-78
2021/09/03 00:31:29;;;;;;;10.13;5.65;;;11.80;90.00;;;;;;4936896;29;20048;-78
2021/09/03 00:33:55;;;;;;;6.63;4.75;;;11.80;89.60;;;;;;4937499;29;20521;-78
2021/09/03 00:36:21;;;;;;;7.85;5.38;;;11.70;89.70;;;;;;4941526;29;20024;-78
2021/09/03 00:38:46;;;;;;;8.13;4.68;;;11.40;89.20;;;;;;4936990;28;20727;-79
2021/09/03 00:41:12;;;;;;;8.20;4.22;;;11.50;89.80;;;;;;4933298;29;20019;-78
2021/09/03 00:43:37;;;;;;;7.68;4.50;;;11.50;90.20;;;;;;4936516;28;20031;-78
2021/09/03 00:46:03;;;;;;;7.93;4.50;;;11.50;90.20;;;;;;4942632;28;20389;-78
2021/09/03 00:48:29;;;;;;;5.45;3.95;;;11.50;90.00;;;;;;4943232;29;20108;-78
2021/09/03 00:50:56;;;;;;;4.38;3.88;;;11.30;88.50;;;;;;4935052;29;20088;-78
2021/09/03 00:53:23;;;;;;;6.55;3.40;;;11.40;90.10;;;;;;4935717;29;20031;-78
2021/09/03 00:55:49;;;;;;;6.50;3.50;;;11.50;90.20;;;;;;4936873;29;20027;-78
2021/09/03 00:58:15;;;;;;;6.13;3.67;;;11.50;90.00;;;;;;4933877;29;20126;-79
2021/09/03 01:00:41;;;;;;;7.72;4.30;;;11.40;90.90;;;;;;4939365;28;20082;-80
2021/09/03 01:03:07;;;;;;;9.10;4.47;;;11.40;91.90;;;;;;4938240;29;20044;-79
2021/09/03 01:05:32;;;;;;;6.72;3.92;;;11.30;91.20;;;;;;4944091;28;20040;-79
2021/09/03 01:07:58;;;;;;;3.50;2.95;;;11.30;90.70;;;;;;4937417;29;20556;-78
2021/09/03 01:10:24;;;;;;;3.17;2.72;;;11.20;89.10;;;;;;4932722;28;20530;-79
2021/09/03 01:12:50;;;;;;;6.55;3.33;;;11.00;89.30;;;;;;4935035;29;20456;-79
2021/09/03 01:15:17;;;;;;;5.78;3.35;;;11.00;90.20;;;;;;4936217;29;20137;-79
2021/09/03 01:17:43;;;;;;;5.40;4.07;;;10.80;91.10;;;;;;4932172;29;20090;-79
2021/09/03 01:20:11;;;;;;;6.40;4.10;;;10.70;91.30;;;;;;4937223;29;20035;-79
2021/09/03 01:22:37;;;;;;;8.07;3.80;;;10.80;91.50;;;;;;4932840;29;20028;-79
2021/09/03 01:25:04;;;;;;;6.55;4.38;;;10.80;91.20;;;;;;4936164;29;20059;-79
2021/09/03 01:27:30;;;;;;;4.03;3.28;;;10.90;90.70;;;;;;4934034;28;20027;-80
2021/09/03 01:29:55;;;;;;;5.45;3.47;;;11.00;90.40;;;;;;4936776;28;20480;-79
2021/09/03 01:32:21;;;;;;;6.55;4.13;;;11.10;90.10;;;;;;4949550;28;20115;-79
2021/09/03 01:34:47;;;;;;;6.50;4.15;;;11.00;90.00;;;;;;4931340;29;20051;-79
2021/09/03 01:37:12;;;;;;;7.53;4.07;;;11.00;90.40;;;;;;4936397;29;20120;-79
2021/09/03 01:39:38;;;;;;;7.82;4.68;;;11.10;90.60;;;;;;4930877;28;20178;-79
2021/09/03 01:42:04;;;;;;;9.27;4.88;;;11.20;90.90;;;;;;4940058;28;20020;-79
2021/09/03 01:44:30;;;;;;;11.80;4.63;;;11.20;91.00;;;;;;4940767;29;20040;-79
2021/09/03 01:46:56;;;;;;;7.10;4.20;;;11.20;91.20;;;;;;4936982;29;20078;-79
2021/09/03 01:49:22;;;;;;;7.63;4.82;;;11.20;90.60;;;;;;4943999;28;20035;-79
2021/09/03 01:51:48;;;;;;;8.88;5.13;;;11.10;90.70;;;;;;4945045;29;20102;-79
2021/09/03 01:54:14;;;;;;;8.52;5.20;;;10.90;91.70;;;;;;4937299;28;20048;-79
2021/09/03 01:56:40;;;;;;;9.13;4.82;;;10.80;91.70;;;;;;4956566;28;20024;-79
2021/09/03 01:59:06;;;;;;;6.95;4.70;;;10.60;92.10;;;;;;4937252;28;20490;-79
2021/09/03 02:01:31;;;;;;;7.18;4.15;;;10.50;92.70;;;;;;4939673;28;20043;-79
2021/09/03 02:03:57;;;;;;;6.95;4.65;;;10.60;92.40;;;;;;4938971;28;20027;-79
2021/09/03 02:06:23;;;;;;;7.53;4.50;;;10.60;92.30;;;;;;4936122;29;20039;-79
2021/09/03 02:08:48;;;;;;;6.25;4.22;;;10.80;91.60;;;;;;4939330;29;20034;-79
2021/09/03 02:11:15;;;;;;;5.07;3.67;;;10.80;90.40;;;;;;4944065;29;20023;-79
2021/09/03 02:13:40;;;;;;;10.00;2.70;;;10.80;90.00;;;;;;4937552;29;20039;-79
2021/09/03 02:16:06;;;;;;;2.60;2.38;;;10.60;88.80;;;;;;4937306;29;20024;-79
2021/09/03 02:18:32;;;;;;;3.95;2.55;;;10.50;89.30;;;;;;4938718;28;20032;-79
2021/09/03 02:20:59;;;;;;;4.20;2.50;;;10.60;89.70;;;;;;4937409;29;20035;-79
2021/09/03 02:23:26;;;;;;;4.40;2.63;;;10.60;88.30;;;;;;4940728;29;20062;-79
2021/09/03 02:25:51;;;;;;;2.55;2.35;;;10.50;86.60;;;;;;4943040;29;20033;-79
2021/09/03 02:28:18;;;;;;;3.00;2.38;;;10.40;86.30;;;;;;4943580;29;20051;-78
2021/09/03 02:30:44;;;;;;;6.43;3.58;;;10.40;87.50;;;;;;4946723;28;20032;-79
2021/09/03 02:33:11;;;;;;;5.93;3.53;;;10.50;88.80;;;;;;4942509;29;20118;-79
2021/09/03 02:35:37;;;;;;;6.78;3.65;;;10.40;90.00;;;;;;4949734;28;20035;-79
2021/09/03 02:38:02;;;;;;;6.07;4.20;;;10.50;89.30;;;;;;4945813;29;20023;-79
2021/09/03 02:40:29;;;;;;;6.40;3.80;;;10.60;89.40;;;;;;4944550;28;20028;-79
2021/09/03 02:42:55;;;;;;;8.80;4.43;;;10.60;89.30;;;;;;4934967;29;20051;-79
2021/09/03 02:45:21;;;;;;;5.60;4.00;;;10.60;89.20;;;;;;4939867;29;20032;-79
2021/09/03 02:47:47;;;;;;;6.63;4.13;;;10.50;89.50;;;;;;4945014;29;20042;-79
2021/09/03 02:50:13;;;;;;;7.70;4.70;;;10.50;89.30;;;;;;4936609;28;20028;-78
2021/09/03 02:52:38;;;;;;;7.50;4.70;;;10.40;90.20;;;;;;4950311;28;20040;-79
2021/09/03 02:55:05;;;;;;;8.88;4.72;;;10.40;90.20;;;;;;4939454;28;20038;-79
2021/09/03 02:57:31;;;;;;;5.53;3.50;;;10.40;89.70;;;;;;4942056;28;20079;-79
2021/09/03 02:59:56;;;;;;;3.53;2.80;;;10.30;86.50;;;;;;4939435;28;20412;-79
2021/09/03 03:02:22;;;;;;;3.67;2.58;;;10.20;86.10;;;;;;4935185;28;20131;-79
2021/09/03 03:04:48;;;;;;;3.38;2.05;;;10.20;86.10;;;;;;4943035;29;20040;-79
2021/09/03 03:07:13;;;;;;;2.45;1.48;;;10.10;86.40;;;;;;4941730;28;20043;-79
2021/09/03 03:09:39;;;;;;;1.33;1.30;;;10.00;86.70;;;;;;4941272;28;20028;-80
2021/09/03 03:12:05;;;;;;;6.88;1.65;;;10.00;86.80;;;;;;4941799;29;20040;-79
2021/09/03 03:14:34;;;;;;;2.35;1.67;;;9.90;86.70;;;;;;4932488;29;20023;-80
2021/09/03 03:17:01;;;;;;;2.55;2.13;;;9.90;87.30;;;;;;4942754;29;20038;-79
2021/09/03 03:19:27;;;;;;;4.07;2.17;;;9.90;88.30;;;;;;4940459;29;20036;-79
2021/09/03 03:21:54;;;;;;;3.17;2.20;;;9.80;89.30;;;;;;4943816;29;20036;-79
2021/09/03 03:24:19;;;;;;;2.60;2.40;;;9.70;90.20;;;;;;4933106;29;20024;-80
2021/09/03 03:26:46;;;;;;;4.82;3.33;;;9.80;90.00;;;;;;4941642;29;20083;-79
2021/09/03 03:29:11;;;;;;;6.32;3.45;;;9.80;90.30;;;;;;4938628;29;20107;-79
2021/09/03 03:31:37;;;;;;;3.72;2.70;;;9.80;89.70;;;;;;4939553;29;20036;-79
2021/09/03 03:34:03;;;;;;;2.80;2.60;;;9.80;89.50;;;;;;4941137;29;20549;-79
2021/09/03 03:36:29;;;;;;;2.80;1.90;;;9.70;88.90;;;;;;4944104;28;20073;-79
2021/09/03 03:38:55;;;;;;;4.35;3.03;;;9.70;89.20;;;;;;4937512;29;20059;-79
2021/09/03 03:41:21;;;;;;;4.88;3.30;;;9.80;90.00;;;;;;4960607;28;20023;-80
2021/09/03 03:43:47;;;;;;;5.55;3.90;;;9.80;90.70;;;;;;4946876;29;20032;-79
2021/09/03 03:46:13;;;;;;;6.40;4.20;;;9.90;90.90;;;;;;4942763;28;20031;-79
2021/09/03 03:48:39;;;;;;;5.20;3.22;;;9.90;92.10;;;;;;4941556;29;20861;-80
2021/09/03 03:51:05;;;;;;;17.02;3.50;;;9.90;91.00;;;;;;4943221;29;20161;-79
2021/09/03 03:53:31;;;;;;;5.78;3.33;;;9.80;90.40;;;;;;4949545;28;20033;-79
2021/09/03 03:55:57;;;;;;;4.55;3.22;;;9.80;90.60;;;;;;4958186;29;20054;-79
2021/09/03 03:58:23;;;;;;;4.80;3.30;;;9.80;90.20;;;;;;4940914;29;20028;-79
2021/09/03 04:00:48;;;;;;;5.22;3.60;;;9.80;90.40;;;;;;4941865;29;20028;-79
2021/09/03 04:03:14;;;;;;;4.85;3.72;;;9.80;90.30;;;;;;4942167;28;20063;-79
2021/09/03 04:05:40;;;;;;;6.35;4.22;;;9.70;90.90;;;;;;4936488;28;20401;-80
2021/09/03 04:08:06;;;;;;;8.70;4.70;;;9.60;91.50;;;;;;4933223;29;20036;-79
2021/09/03 04:10:33;;;;;;;7.72;4.93;;;9.50;91.80;;;;;;4939198;29;20024;-79
2021/09/03 04:12:58;;;;;;;6.95;4.55;;;9.50;91.90;;;;;;4933007;28;20036;-79
2021/09/03 04:15:24;;;;;;;6.68;4.68;;;9.40;91.90;;;;;;4939066;28;20079;-80
2021/09/03 04:17:50;;;;;;;6.38;4.25;;;9.60;91.40;;;;;;4944068;29;20032;-80
2021/09/03 04:20:16;;;;;;;4.63;3.53;;;9.60;90.70;;;;;;4940588;28;20064;-79
2021/09/03 04:22:41;;;;;;;3.25;2.53;;;9.60;90.10;;;;;;4943555;28;20039;-79
2021/09/03 04:25:08;;;;;;;3.60;2.63;;;9.50;88.90;;;;;;4942717;28;20063;-79
2021/09/03 04:27:35;;;;;;;2.70;2.10;;;9.50;88.80;;;;;;4942876;29;20047;-80
2021/09/03 04:30:02;;;;;;;3.22;2.65;;;9.50;88.40;;;;;;4935279;29;20035;-79
2021/09/03 04:32:27;;;;;;;3.13;2.58;;;9.40;89.00;;;;;;4947103;28;20036;-79
2021/09/03 04:34:53;;;;;;;1.33;1.23;;;9.40;88.20;;;;;;4942102;29;20549;-79
2021/09/03 04:37:19;;;;;;;2.20;2.00;;;9.20;86.80;;;;;;4934849;29;20028;-79
2021/09/03 04:39:44;;;;;;;2.28;1.98;;;9.00;87.60;;;;;;4944232;29;20039;-79
2021/09/03 04:42:10;;;;;;;2.10;1.90;;;9.10;89.10;;;;;;4943659;29;20027;-79
2021/09/03 04:44:36;;;;;;;2.15;1.95;;;9.10;88.70;;;;;;4946065;29;20074;-79
2021/09/03 04:47:02;;;;;;;3.20;2.40;;;9.10;89.10;;;;;;4949473;28;20028;-79
2021/09/03 04:49:27;;;;;;;3.03;2.40;;;9.10;89.50;;;;;;4941667;29;20027;-79
2021/09/03 04:51:53;;;;;;;3.35;2.90;;;9.20;89.40;;;;;;4943271;28;20036;-79
2021/09/03 04:54:19;;;;;;;3.80;3.22;;;9.10;90.90;;;;;;4939786;28;20051;-79
2021/09/03 04:56:44;;;;;;;4.75;3.13;;;9.00;90.80;;;;;;4941056;29;20071;-79
2021/09/03 04:59:10;;;;;;;3.67;2.85;;;9.10;90.40;;;;;;4942696;29;20032;-79
2021/09/03 05:01:36;;;;;;;3.67;2.85;;;9.20;90.30;;;;;;4941650;28;20515;-79
2021/09/03 05:04:01;;;;;;;4.90;2.72;;;9.10;90.30;;;;;;4937525;29;20032;-79
2021/09/03 05:06:27;;;;;;;3.22;2.92;;;9.10;90.30;;;;;;4939996;29;20032;-79
2021/09/03 05:08:53;;;;;;;4.53;2.78;;;9.10;90.20;;;;;;4939388;29;20034;-79
2021/09/03 05:11:18;;;;;;;3.88;2.70;;;9.10;90.20;;;;;;4939460;29;20024;-80
2021/09/03 05:13:44;;;;;;;4.90;3.33;;;9.20;90.10;;;;;;4940510;29;20083;-79
2021/09/03 05:16:10;;;;;;;5.43;3.65;;;9.30;90.20;;;;;;4940098;28;20119;-79
2021/09/03 05:18:35;;;;;;;5.28;3.13;;;9.30;90.50;;;;;;4940846;29;20063;-79
2021/09/03 05:21:02;;;;;;;4.05;3.15;;;9.30;90.30;;;;;;4949609;29;20388;-79
2021/09/03 05:23:27;;;;;;;7.60;3.15;;;9.30;90.30;;;;;;4940340;28;20038;-80
2021/09/03 05:25:53;;;;;;;5.65;3.42;;;9.40;90.60;;;;;;4943125;29;20032;-79
2021/09/03 05:28:19;;;;;;;7.00;3.17;;;9.40;91.20;;;;;;4947378;29;20039;-79
2021/09/03 05:30:44;;;;;;;2.75;2.47;;;9.40;90.50;;;;;;4944357;28;20039;-79
2021/09/03 05:33:10;;;;;;;3.25;2.38;;;9.20;90.70;;;;;;4937206;29;20093;-79
2021/09/03 05:35:36;;;;;;;6.72;3.20;;;9.20;90.90;;;;;;4938863;29;20032;-79
2021/09/03 05:38:04;;;;;;;2.80;2.10;;;9.20;91.20;;;;;;4952101;28;20044;-79
2021/09/03 05:40:31;;;;;;;2.30;2.10;;;9.30;91.00;;;;;;4948373;28;20032;-79
2021/09/03 05:42:57;;;;;;;2.58;2.38;;;9.40;91.20;;;;;;4944638;28;20035;-79
2021/09/03 05:45:22;;;;;;;4.40;2.28;;;9.40;91.50;;;;;;4940679;29;20036;-79
2021/09/03 05:47:48;;;;;;;1.95;1.85;;;9.50;91.40;;;;;;4937843;28;20061;-79
2021/09/03 05:50:15;;;;;;;2.67;2.47;;;9.50;91.30;;;;;;4944164;29;20031;-79
2021/09/03 05:52:41;;;;;;;3.17;2.40;;;9.60;91.40;;;;;;4942435;28;20087;-79
2021/09/03 05:55:07;;;;;;;2.72;2.40;;;9.70;91.70;;;;;;4941043;29;20095;-80
2021/09/03 05:57:33;;;;;;;3.80;2.63;;;9.70;92.10;;;;;;4937795;29;20064;-79
2021/09/03 05:59:59;;;;;;;2.67;2.40;;;9.70;92.10;;;;;;4941041;28;20047;-80
2021/09/03 06:02:25;;;;;;;6.10;3.25;;;9.80;92.80;;;;;;4937903;28;20081;-80
2021/09/03 06:04:51;;;;;;;7.75;4.60;;;9.80;92.60;;;;;;4930582;29;20036;-79
2021/09/03 06:07:17;;;;;;;5.28;3.80;;;9.90;93.20;;;;;;4937036;29;20044;-80
2021/09/03 06:09:42;;;;;;;6.53;4.50;;;9.90;93.30;;;;;;4937337;29;20123;-79
2021/09/03 06:12:08;;;;;;;8.05;4.53;;;10.00;93.30;;;;;;4933818;28;20039;-79
2021/09/03 06:14:34;;;;;;;8.63;5.40;;;10.20;93.00;;;;;;4950102;28;20938;-79
2021/09/03 06:17:00;;;;;;;7.70;5.40;;;10.30;94.00;;;;;;4949859;28;20079;-80
2021/09/03 06:19:25;;;;;;;7.53;5.28;;;10.50;94.40;;;;;;4935868;29;20027;-80
2021/09/03 06:21:51;;;;;;;10.10;5.50;;;10.50;94.50;;;;;;4938274;29;20043;-79
2021/09/03 06:26:56;;;;;;;9.38;5.35;;;10.80;95.30;;;;;;4939132;29;20095;-80
2021/09/03 06:29:37;;;;;;;10.10;6.18;;;11.00;95.90;;;;;;4944707;29;20031;-80
2021/09/03 06:32:15;;;;;;;13.77;7.32;;;11.20;96.40;;;;;;4939637;28;20140;-80
2021/09/03 06:34:48;;;;;;;13.05;7.68;;;11.40;96.50;;;;;;4952212;28;20051;-80
2021/09/03 06:37:15;;;;;;;12.52;7.50;;;11.60;96.80;;;;;;4940632;29;20042;-80
2021/09/03 06:39:41;;;;;;;16.17;7.95;;;11.70;96.60;;;;;;4945357;28;20091;-80
2021/09/03 06:42:08;;;;;;;14.35;8.40;;;11.90;97.00;;;;;;4941431;29;20039;-80
2021/09/03 06:44:35;;;;;;;12.25;7.80;;;12.00;96.50;;;;;;4942038;29;20032;-80
2021/09/03 06:47:01;;;;;;;15.65;8.75;;;12.10;96.70;;;;;;4940080;28;20035;-80
2021/09/03 06:49:27;;;;;;;14.73;8.27;;;12.20;96.50;;;;;;4939993;28;20036;-80
2021/09/03 06:51:53;;;;;;;15.15;9.88;;;12.30;96.20;;;;;;4926923;29;20024;-80
2021/09/03 06:54:18;;;;;;;13.13;7.72;;;12.30;96.30;;;;;;4940996;29;20027;-80
2021/09/03 06:56:44;;;;;;;14.60;9.43;;;12.50;96.20;;;;;;4947986;29;20032;-79
2021/09/03 06:59:10;;;;;;;15.68;8.50;;;12.60;96.10;;;;;;4948154;29;20063;-79
2021/09/03 07:01:35;;;;;;;14.25;8.32;;;12.70;95.90;;;;;;4939873;28;20103;-79
2021/09/03 07:04:01;;;;;;;14.13;8.80;;;12.80;95.80;;;;;;4938535;28;20032;-80
2021/09/03 07:06:27;;;;;;;11.80;7.90;;;12.90;95.60;;;;;;4939844;29;20496;-80
2021/09/03 07:08:53;;;;;;;13.38;8.02;;;13.00;95.70;;;;;;4941372;28;20066;-79
2021/09/03 07:11:19;;;;;;;14.18;8.55;;;13.10;95.30;;;;;;4939543;28;20102;-80
2021/09/03 07:13:45;;;;;;;13.80;8.68;;;13.20;95.40;;;;;;4944340;29;20063;-80
2021/09/03 07:16:10;;;;;;;11.88;7.47;;;13.30;95.10;;;;;;4944727;29;20019;-80
2021/09/03 07:18:36;;;;;;;14.85;9.27;;;13.40;94.80;;;;;;4951385;28;20448;-79
2021/09/03 07:21:02;;;;;;;15.60;7.90;;;13.60;95.60;;;;;;4943537;29;20204;-80
2021/09/03 07:23:28;;;;;;;12.88;8.00;;;13.80;95.10;;;;;;4941234;29;20091;-79
2021/09/03 07:25:53;;;;;;;14.15;7.72;;;13.80;94.80;;;;;;4948906;28;20031;-80
2021/09/03 07:28:19;;;;;;;12.75;7.70;;;14.00;94.40;;;;;;4939009;29;20087;-80
2021/09/03 07:30:45;;;;;;;13.40;7.88;;;14.10;93.60;;;;;;4935629;28;20055;-79
2021/09/03 07:33:11;;;;;;;10.65;7.07;;;14.20;93.60;;;;;;4936118;29;20024;-79
2021/09/03 07:35:36;;;;;;;15.98;8.18;;;14.30;93.00;;;;;;4956258;28;20024;-79
2021/09/03 07:38:03;;;;;;;12.88;7.45;;;14.30;92.30;;;;;;4946284;28;20091;-79
2021/09/03 07:40:32;;;;;;;13.18;7.80;;;14.40;91.70;;;;;;4933217;29;20024;-79
2021/09/03 07:43:05;;;;;;;11.55;7.07;;;14.40;91.60;;;;;;4938434;29;20048;-78
2021/09/03 07:45:31;;;;;;;13.00;7.60;;;14.50;91.60;;;;;;4934613;29;20032;-79
2021/09/03 07:47:57;;;;;;;11.88;6.85;;;14.70;92.10;;;;;;4939419;28;20034;-79
2021/09/03 07:50:23;;;;;;;12.25;7.43;;;14.70;90.50;;;;;;4933292;28;20114;-79
2021/09/03 07:52:48;;;;;;;12.75;6.70;;;14.70;91.60;;;;;;4948818;29;20054;-79
2021/09/03 07:55:14;;;;;;;14.82;7.63;;;14.80;90.70;;;;;;4944571;29;20028;-79
2021/09/03 07:57:39;;;;;;;9.93;6.90;;;15.00;90.70;;;;;;4947473;29;20020;-79
2021/09/03 08:00:06;;;;;;;12.00;7.00;;;15.10;89.70;;;;;;4948878;29;20028;-79
2021/09/03 08:02:31;;;;;;;11.38;6.88;;;15.10;90.40;;;;;;4950036;29;20059;-79
2021/09/03 08:04:57;;;;;;;13.10;6.63;;;15.30;89.90;;;;;;4944194;29;20028;-80
2021/09/03 08:07:27;;;;;;;11.38;6.20;;;15.30;89.90;;;;;;4940950;28;20036;-79
2021/09/03 08:09:53;;;;;;;13.35;6.97;;;15.40;89.90;;;;;;4937268;29;20047;-79
2021/09/03 08:12:19;;;;;;;9.80;6.07;;;15.50;87.70;;;;;;4941520;28;20051;-79
2021/09/03 08:14:45;;;;;;;11.35;7.15;;;15.60;87.30;;;;;;4933705;29;20081;-79
2021/09/03 08:17:10;;;;;;;10.75;6.60;;;15.60;87.40;;;;;;4937270;29;20394;-80
2021/09/03 08:19:36;;;;;;;11.10;6.85;;;15.70;87.00;;;;;;4943623;29;20046;-80
2021/09/03 08:22:02;;;;;;;9.95;6.55;;;15.80;88.80;;;;;;4951224;28;20059;-79
2021/09/03 08:24:28;;;;;;;11.50;6.95;;;16.00;87.50;;;;;;4943491;29;20028;-79
2021/09/03 08:26:53;;;;;;;9.95;6.65;;;16.00;87.60;;;;;;4946711;29;20609;-79
2021/09/03 08:29:19;;;;;;;10.68;6.15;;;16.00;86.10;;;;;;4944991;29;20115;-79
2021/09/03 08:31:45;;;;;;;11.13;7.07;;;16.10;85.20;;;;;;4950111;29;20050;-79
2021/09/03 08:34:10;;;;;;;10.50;6.30;;;16.20;86.80;;;;;;4944578;29;20016;-79
2021/09/03 08:36:36;;;;;;;9.15;6.25;;;16.20;86.00;;;;;;4945540;28;20035;-79
2021/09/03 08:39:02;;;;;;;9.38;6.40;;;16.40;87.00;;;;;;4932755;29;20496;-80
2021/09/03 08:41:29;;;;;;;9.43;6.63;;;16.40;83.30;;;;;;4933890;29;20051;-79
2021/09/03 08:43:57;;;;;;;12.20;6.85;;;16.50;84.70;;;;;;4950300;28;20855;-80
2021/09/03 08:46:24;;;;;;;12.15;6.40;;;16.60;84.30;;;;;;4949143;29;20547;-80
2021/09/03 08:48:50;;;;;;;9.95;5.65;;;16.70;82.50;;;;;;4940251;29;20095;-80
2021/09/03 08:51:16;;;;;;;10.00;5.85;;;16.70;82.80;;;;;;4939574;28;20087;-80
2021/09/03 08:53:41;;;;;;;10.82;6.72;;;16.90;82.70;;;;;;4942910;29;20019;-80
2021/09/03 08:56:07;;;;;;;9.98;6.03;;;17.00;82.20;;;;;;4945132;29;20038;-80
2021/09/03 08:58:33;;;;;;;12.65;6.45;;;17.10;82.10;;;;;;4948161;29;20062;-80
2021/09/03 09:01:10;;;;;;;8.30;5.45;;;17.10;81.40;;;;;;4944443;28;20024;-80
2021/09/03 09:03:40;;;;;;;10.27;6.40;;;17.10;80.40;;;;;;4950863;29;20389;-80
2021/09/03 09:06:07;;;;;;;8.52;5.78;;;17.20;83.00;;;;;;4946872;29;20027;-79
2021/09/03 09:08:34;;;;;;;12.13;6.43;;;17.40;80.90;;;;;;4944438;29;20043;-80
2021/09/03 09:11:16;;;;;;;10.65;5.38;;;17.30;80.80;;;;;;4940931;28;20036;-79
2021/09/03 09:13:45;;;;;;;10.82;5.88;;;17.30;79.00;;;;;;4942271;29;20036;-79
2021/09/03 09:16:11;;;;;;;8.63;5.60;;;17.50;82.30;;;;;;4955344;29;20087;-79
2021/09/03 09:18:48;;;;;;;7.85;5.35;;;17.50;80.00;;;;;;4942131;29;20070;-79
2021/09/03 09:21:25;;;;;;;11.07;6.55;;;17.60;79.20;;;;;;4958291;28;20040;-80
2021/09/03 09:24:02;;;;;;;8.65;5.65;;;17.80;81.60;;;;;;4957587;28;20031;-80
2021/09/03 09:26:45;;;;;;;8.93;5.70;;;17.70;82.20;;;;;;4944696;29;20039;-80
2021/09/03 09:29:13;;;;;;;8.95;5.57;;;17.70;80.30;;;;;;4940925;29;20043;-80
2021/09/03 09:31:39;;;;;;;8.35;5.82;;;17.70;78.80;;;;;;4937858;29;20489;-79
2021/09/03 09:34:13;;;;;;;8.98;5.47;;;17.90;78.00;;;;;;4938383;29;20034;-80
2021/09/03 09:36:40;;;;;;;9.63;5.90;;;17.90;77.50;;;;;;4938855;28;20031;-80
2021/09/03 09:39:05;;;;;;;8.88;5.38;;;18.00;80.50;;;;;;4930478;29;20066;-80
2021/09/03 09:41:31;;;;;;;8.50;4.90;;;18.10;80.70;;;;;;4935358;29;20401;-80
2021/09/03 09:43:57;;;;;;;7.47;5.35;;;18.10;78.70;;;;;;4929692;28;20087;-80
2021/09/03 09:46:29;;;;;;;9.23;5.55;;;18.10;77.30;;;;;;4933792;29;20516;-80
2021/09/03 09:49:03;;;;;;;8.70;5.68;;;18.20;79.50;;;;;;4936167;28;20422;-80
2021/09/03 09:51:39;;;;;;;10.75;6.00;;;18.30;79.50;;;;;;4934979;29;20351;-80
2021/09/03 09:54:25;;;;;;;8.48;5.85;;;18.40;80.20;;;;;;4932439;29;20079;-80
2021/09/03 09:56:55;;;;;;;8.55;5.47;;;18.50;78.60;;;;;;4933642;29;20027;-80
2021/09/03 09:59:23;;;;;;;8.52;5.22;;;18.50;79.60;;;;;;4932693;29;20023;-80
2021/09/03 10:01:51;;;;;;;10.93;5.78;;;18.50;76.80;;;;;;4933831;28;20182;-80
2021/09/03 10:04:20;;;;;;;9.30;4.95;;;18.50;74.50;;;;;;4938164;28;20039;-79
2021/09/03 10:06:48;;;;;;;8.73;5.30;;;18.60;77.10;;;;;;4937641;29;20087;-79
2021/09/03 10:09:19;;;;;;;8.82;5.10;;;18.70;79.40;;;;;;4941922;28;20041;-80
2021/09/03 10:11:47;;;;;;;9.68;5.85;;;18.80;76.50;;;;;;4935437;28;20364;-81
2021/09/03 10:14:16;;;;;;;;;;;18.70;73.90;;;;;;4936177;29;20023;-80
2021/09/03 10:16:42;;;;;;;7.95;5.07;;;18.70;75.30;;;;;;4950469;28;19910;-79
2021/09/03 10:19:08;;;;;;;8.80;5.35;;;18.90;76.30;;;;;;4935692;28;20031;-79
2021/09/03 10:21:39;;;;;;;6.88;5.00;;;18.90;74.80;;;;;;4934606;29;20063;-80
2021/09/03 10:24:23;;;;;;;9.85;5.25;;;18.90;73.40;;;;;;4933957;29;20023;-80
2021/09/03 10:26:50;;;;;;;7.90;4.45;;;19.00;73.00;;;;;;4940299;29;20028;-80
2021/09/03 10:29:24;;;;;;;8.60;4.90;;;18.90;73.20;;;;;;4935769;29;20055;-80
2021/09/03 10:32:08;;;;;;;9.52;5.50;;;19.10;74.10;;;;;;4931092;28;20059;-80
2021/09/03 10:34:40;;;;;;;7.22;4.65;;;19.20;73.40;;;;;;4937815;28;20032;-80
2021/09/03 10:37:19;;;;;;;7.68;5.13;;;19.20;71.60;;;;;;4936403;29;20076;-80
2021/09/03 10:39:49;;;;;;;7.43;4.57;;;19.20;71.40;;;;;;4938094;28;20043;-80
2021/09/03 10:42:33;;;;;;;8.07;4.90;;;19.30;73.40;;;;;;4929330;29;20039;-80
2021/09/03 10:45:05;;;;;;;8.20;4.90;;;19.40;72.90;;;;;;4945424;29;20516;-79
2021/09/03 10:47:32;;;;;;;5.95;4.40;;;19.30;70.30;;;;;;4931864;29;20519;-79
2021/09/03 10:50:03;;;;;;;5.95;4.60;;;19.30;70.00;;;;;;4938987;29;20111;-80
2021/09/03 10:52:29;;;;;;;7.85;4.50;;;19.60;73.30;;;;;;4936469;29;20055;-80
2021/09/03 10:54:55;;;;;;;7.75;4.40;;;19.60;74.10;;;;;;4940206;29;20043;-80
2021/09/03 10:57:20;;;;;;;6.93;4.40;;;19.80;73.50;;;;;;4940774;29;20036;-80
2021/09/03 11:00:15;;;;;;;9.23;4.93;;;19.80;71.60;;;;;;4940282;29;20717;-80
2021/09/03 11:02:41;;;;;;;7.88;4.85;;;19.90;71.10;;;;;;4941719;29;20063;-80
2021/09/03 11:05:13;;;;;;;7.38;4.45;;;19.90;70.90;;;;;;4944756;29;20028;-80
2021/09/03 11:07:43;;;;;;;6.72;4.25;;;19.80;71.40;;;;;;4949365;29;20091;-80
2021/09/03 11:10:17;;;;;;;6.03;3.92;;;19.80;67.60;;;;;;4942123;29;20046;-81
2021/09/03 11:12:52;;;;;;;8.00;4.50;;;19.90;68.90;;;;;;4945839;29;20031;-80
2021/09/03 11:15:19;;;;;;;5.68;4.00;;;20.00;71.40;;;;;;4943915;29;20024;-80
2021/09/03 11:17:46;;;;;;;10.73;4.45;;;20.00;66.30;;;;;;4946636;28;20067;-80
2021/09/03 11:20:14;;;;;;;7.30;4.60;;;20.00;70.90;;;;;;4952204;28;20028;-81
2021/09/03 11:22:40;;;;;;;5.90;4.55;;;20.20;72.90;;;;;;4942714;29;20035;-80
2021/09/03 11:25:07;;;;;;;6.60;4.13;;;20.20;67.50;;;;;;4941403;29;20079;-79
2021/09/03 11:27:35;;;;;;;6.77;4.53;;;20.10;66.40;;;;;;4941757;28;20043;-79
2021/09/03 11:30:09;;;;;;;7.45;4.28;;;20.10;67.80;;;;;;4944008;29;20071;-80
2021/09/03 11:32:37;;;;;;;7.10;4.20;;;20.20;67.30;;;;;;4939336;29;20096;-80
2021/09/03 11:35:08;;;;;;;7.55;4.28;;;20.30;67.90;;;;;;4939806;28;20038;-79
2021/09/03 11:37:43;;;;;;;6.30;3.95;;;20.30;67.20;;;;;;4942084;29;20107;-80
2021/09/03 11:40:22;;;;;;;6.75;4.28;;;20.30;65.50;;;;;;4941510;29;20051;-80
2021/09/03 11:42:54;;;;;;;5.30;3.90;;;20.30;66.50;;;;;;4939051;28;20028;-80
2021/09/03 11:45:32;;;;;;;5.75;3.80;;;20.30;66.60;;;;;;4941295;28;20525;-81
2021/09/03 11:48:04;;;;;;;5.88;4.00;;;20.40;68.00;;;;;;4942447;29;20039;-80
2021/09/03 11:50:31;;;;;;;5.63;3.60;;;20.50;68.10;;;;;;4943302;29;20301;-80
2021/09/03 11:53:01;;;;;;;6.03;4.47;;;20.50;67.00;;;;;;4943764;29;20397;-80
2021/09/03 11:55:41;;;;;;;7.25;4.20;;;20.50;63.50;;;;;;4944286;29;20047;-80
2021/09/03 11:58:08;;;;;;;4.85;3.90;;;20.50;65.00;;;;;;4945277;28;20036;-80
2021/09/03 12:00:34;;;;;;;7.17;4.40;;;20.50;66.50;;;;;;4957880;28;20024;-80
2021/09/03 12:03:03;;;;;;;5.38;3.95;;;20.50;65.50;;;;;;4947686;29;20062;-80
2021/09/03 12:05:30;;;;;;;6.93;4.03;;;20.50;65.50;;;;;;4940599;29;20031;-80
2021/09/03 12:08:11;;;;;;;6.97;4.18;;;20.60;67.80;;;;;;4944251;28;20460;-80
2021/09/03 12:10:58;;;;;;;6.30;3.42;;;20.70;64.00;;;;;;4943780;29;20036;-80
2021/09/03 12:13:26;;;;;;;4.80;3.42;;;20.70;66.20;;;;;;4941273;29;20027;-80
2021/09/03 12:16:00;;;;;;;5.53;3.80;;;20.70;62.30;;;;;;4943882;28;20573;-80
2021/09/03 12:18:35;;;;;;;6.88;4.20;;;20.70;65.80;;;;;;4941305;28;20043;-81
2021/09/03 12:21:03;;;;;;;5.97;3.70;;;20.70;62.20;;;;;;4932358;28;20504;-80
2021/09/03 12:23:33;;;;;;;;;;;20.80;65.30;;;;;;4951688;28;20024;-80
2021/09/03 12:26:04;;;;;;;5.88;3.63;;;20.70;59.50;;;;;;4940932;29;19910;-80
2021/09/03 12:28:30;;;;;;;6.20;4.10;;;20.70;61.90;;;;;;4933910;29;20587;-80
2021/09/03 12:30:56;;;;;;;6.00;4.30;;;20.70;62.60;;;;;;4939629;28;20040;-81
2021/09/03 12:33:29;;;;;;;5.03;4.00;;;20.70;62.70;;;;;;4945808;28;20162;-79
2021/09/03 12:36:03;;;;;;;6.38;3.50;;;20.90;63.00;;;;;;4939249;29;20497;-80
2021/09/03 12:38:34;;;;;;;3.85;3.42;;;20.80;59.00;;;;;;4944949;28;20489;-80
2021/09/03 12:41:05;;;;;;;5.72;3.90;;;20.70;58.00;;;;;;4934548;29;20055;-80
2021/09/03 12:43:33;;;;;;;3.90;3.25;;;20.70;60.50;;;;;;4948872;28;20034;-80
2021/09/03 12:46:06;;;;;;;7.25;4.40;;;20.80;60.90;;;;;;4936868;29;20027;-79
2021/09/03 12:48:32;;;;;;;6.57;3.92;;;20.80;64.90;;;;;;4941099;28;20039;-80
2021/09/03 12:50:57;;;;;;;5.22;3.97;;;20.90;63.80;;;;;;4934928;28;20099;-80
2021/09/03 12:53:24;;;;;;;5.63;3.50;;;20.90;60.80;;;;;;4937011;29;20088;-80